createdAt,value
2022-08-19T00:01:31.176Z,2.50
2022-08-19T00:04:00.058Z,2.53
2022-08-19T00:06:29.143Z,2.72
2022-08-19T00:09:01.038Z,2.28
2022-08-19T00:11:29.394Z,2.67
2022-08-19T00:13:58.013Z,2.05
2022-08-19T00:16:26.927Z,2.63
2022-08-19T00:18:56.178Z,2.08
2022-08-19T00:21:24.759Z,2.00
2022-08-19T00:23:52.727Z,2.03
2022-08-19T00:26:22.428Z,2.10
2022-08-19T00:28:50.510Z,2.00
2022-08-19T00:31:18.399Z,2.20
2022-08-19T00:33:46.282Z,2.20
2022-08-19T00:36:14.415Z,2.08
2022-08-19T00:38:44.185Z,2.00
2022-08-19T00:41:14.380Z,1.77
2022-08-19T00:43:43.750Z,2.17
2022-08-19T00:46:11.647Z,2.03
2022-08-19T00:48:39.581Z,1.85
2022-08-19T00:51:08.065Z,1.92
2022-08-19T00:53:36.342Z,1.65
2022-08-19T00:56:07.214Z,2.20
2022-08-19T00:58:36.931Z,2.17
2022-08-19T01:01:08.635Z,1.92
2022-08-19T01:03:56.584Z,2.00
2022-08-19T01:06:24.490Z,1.65
2022-08-19T01:08:52.396Z,2.00
2022-08-19T01:11:20.230Z,1.75
2022-08-19T01:13:49.986Z,1.90
2022-08-19T01:16:22.291Z,1.90
2022-08-19T01:18:51.107Z,2.00
2022-08-19T01:21:28.328Z,1.80
2022-08-19T01:23:57.539Z,2.00
2022-08-19T01:26:27.853Z,1.90
2022-08-19T01:29:00.917Z,2.53
2022-08-19T01:31:32.781Z,2.20
2022-08-19T01:34:02.968Z,2.00
2022-08-19T01:36:33.506Z,1.80
2022-08-19T01:39:05.383Z,1.83
2022-08-19T01:41:33.460Z,2.17
2022-08-19T01:44:10.296Z,2.00
2022-08-19T01:46:49.023Z,2.38
2022-08-19T01:49:18.183Z,2.85
2022-08-19T01:51:46.017Z,3.35
2022-08-19T01:54:23.383Z,2.50
2022-08-19T01:56:59.691Z,2.30
2022-08-19T01:59:27.619Z,2.58
2022-08-19T02:01:55.638Z,2.17
2022-08-19T02:04:24.332Z,2.42
2022-08-19T02:06:52.152Z,2.40
2022-08-19T02:09:21.428Z,2.13
2022-08-19T02:11:49.443Z,2.40
2022-08-19T02:14:17.263Z,2.50
2022-08-19T02:16:45.106Z,2.05
2022-08-19T02:19:13.032Z,2.40
2022-08-19T02:21:40.919Z,2.63
2022-08-19T02:24:08.885Z,2.17
2022-08-19T02:26:38.509Z,2.55
2022-08-19T02:29:06.383Z,2.20
2022-08-19T02:31:34.352Z,2.55
2022-08-19T02:34:02.688Z,2.55
2022-08-19T02:36:31.176Z,2.10
2022-08-19T02:38:58.302Z,2.00
2022-08-19T02:41:29.300Z,2.70
2022-08-19T02:44:30.357Z,2.25
2022-08-19T02:46:51.809Z,2.95
2022-08-19T02:49:21.075Z,2.20
2022-08-19T02:51:49.527Z,2.30
2022-08-19T02:54:17.864Z,2.70
2022-08-19T02:56:46.736Z,2.13
2022-08-19T02:59:16.105Z,2.92
2022-08-19T03:01:44.475Z,2.55
2022-08-19T03:04:16.517Z,2.28
2022-08-19T03:06:46.563Z,2.53
2022-08-19T03:09:15.251Z,2.83
2022-08-19T03:11:43.156Z,2.90
2022-08-19T03:14:12.461Z,2.72
2022-08-19T03:16:45.752Z,2.40
2022-08-19T03:19:14.482Z,2.80
2022-08-19T03:21:45.476Z,2.72
2022-08-19T03:24:14.447Z,2.72
2022-08-19T03:26:44.376Z,2.13
2022-08-19T03:29:13.216Z,2.67
2022-08-19T03:31:52.653Z,2.80
2022-08-19T03:34:23.847Z,2.67
2022-08-19T03:36:52.018Z,2.63
2022-08-19T03:39:20.600Z,3.13
2022-08-19T03:41:50.851Z,3.85
2022-08-19T03:44:39.579Z,2.90
2022-08-19T03:47:08.927Z,2.97
2022-08-19T03:49:37.498Z,3.05
2022-08-19T03:52:08.451Z,3.35
2022-08-19T03:54:37.068Z,3.47
2022-08-19T03:57:05.410Z,3.40
2022-08-19T03:59:36.161Z,4.10
2022-08-19T04:02:10.009Z,3.30
2022-08-19T04:04:39.462Z,4.53
2022-08-19T04:07:07.338Z,5.78
2022-08-19T04:09:37.159Z,5.72
2022-08-19T04:12:07.263Z,5.72
2022-08-19T04:14:36.426Z,6.25
2022-08-19T04:17:06.389Z,6.13
2022-08-19T04:19:37.033Z,6.10
2022-08-19T04:22:05.861Z,6.10
2022-08-19T04:24:35.569Z,6.13
2022-08-19T04:27:04.996Z,6.00
2022-08-19T04:29:33.092Z,6.70
2022-08-19T04:32:08.684Z,8.57
2022-08-19T04:35:01.470Z,6.68
2022-08-19T04:37:35.034Z,8.27
2022-08-19T04:40:23.491Z,6.25
2022-08-19T04:42:51.440Z,6.22
2022-08-19T04:45:19.303Z,5.50
2022-08-19T04:47:58.285Z,5.50
2022-08-19T04:50:28.618Z,6.20
2022-08-19T04:52:57.587Z,6.80
2022-08-19T04:55:27.312Z,6.03
2022-08-19T04:57:55.492Z,6.72
2022-08-19T05:00:23.673Z,6.40
2022-08-19T05:02:51.801Z,7.53
2022-08-19T05:05:20.712Z,6.68
2022-08-19T05:07:50.239Z,6.15
2022-08-19T05:10:18.104Z,6.68
2022-08-19T05:12:45.922Z,5.82
2022-08-19T05:15:13.941Z,6.15
2022-08-19T05:18:03.227Z,6.00
2022-08-19T05:20:48.832Z,4.65
2022-08-19T05:23:20.631Z,5.22
2022-08-19T05:25:51.146Z,4.90
2022-08-19T05:28:19.407Z,5.68
2022-08-19T05:30:49.000Z,5.85
2022-08-19T05:33:19.810Z,8.23
2022-08-19T05:35:49.243Z,7.65
2022-08-19T05:38:19.396Z,8.52
2022-08-19T05:40:47.871Z,8.30
2022-08-19T05:43:17.483Z,8.98
2022-08-19T05:45:46.048Z,9.98
2022-08-19T05:48:15.196Z,10.38
2022-08-19T05:50:43.834Z,11.45
2022-08-19T05:53:11.763Z,11.27
2022-08-19T05:55:41.052Z,10.10
2022-08-19T05:58:09.180Z,8.57
2022-08-19T06:00:37.775Z,10.75
2022-08-19T06:03:11.371Z,11.07
2022-08-19T06:05:44.785Z,11.07
2022-08-19T06:08:20.543Z,12.85
2022-08-19T06:11:14.981Z,13.40
2022-08-19T06:13:42.861Z,13.68
2022-08-19T06:16:10.877Z,15.93
2022-08-19T06:18:38.751Z,18.27
2022-08-19T06:21:07.065Z,18.80
2022-08-19T06:23:35.780Z,20.55
2022-08-19T06:26:05.203Z,22.63
2022-08-19T06:28:33.869Z,24.30
2022-08-19T06:31:07.348Z,26.48
2022-08-19T06:33:35.331Z,27.15
2022-08-19T06:36:03.338Z,28.25
2022-08-19T06:38:31.381Z,29.20
2022-08-19T06:41:07.786Z,30.40
2022-08-19T06:43:37.045Z,39.65
2022-08-19T06:46:14.661Z,32.38
2022-08-19T06:48:45.771Z,32.22
2022-08-19T06:51:19.159Z,29.83
2022-08-19T06:53:48.100Z,33.33
2022-08-19T06:56:20.131Z,30.92
2022-08-19T06:58:49.351Z,28.95
2022-08-19T07:01:17.288Z,30.00
2022-08-19T07:03:45.307Z,30.08
2022-08-19T07:06:43.690Z,30.10
2022-08-19T07:09:07.249Z,29.27
2022-08-19T07:11:36.764Z,28.50
2022-08-19T07:14:07.198Z,29.35
2022-08-19T07:16:48.119Z,28.38
2022-08-19T07:19:16.533Z,29.70
2022-08-19T07:21:48.865Z,27.90
2022-08-19T07:24:17.365Z,28.40
2022-08-19T07:26:47.067Z,30.67
2022-08-19T07:29:22.835Z,29.88
2022-08-19T07:31:52.880Z,28.98
2022-08-19T07:34:22.306Z,29.02
2022-08-19T07:36:50.628Z,27.25
2022-08-19T07:39:27.077Z,27.23
2022-08-19T07:41:57.221Z,35.50
2022-08-19T07:44:25.368Z,28.05
2022-08-19T07:46:55.095Z,28.13
2022-08-19T07:49:23.505Z,27.17
2022-08-19T07:51:54.412Z,26.65
2022-08-19T07:54:24.565Z,27.80
2022-08-19T07:56:53.832Z,25.83
2022-08-19T07:59:24.271Z,26.38
2022-08-19T08:01:52.336Z,27.30
2022-08-19T08:04:38.658Z,27.67
2022-08-19T08:07:24.477Z,25.27
2022-08-19T08:10:00.641Z,25.30
2022-08-19T08:12:35.388Z,25.05
2022-08-19T08:15:12.438Z,23.17
2022-08-19T08:17:49.837Z,23.27
2022-08-19T08:20:23.360Z,22.63
2022-08-19T08:23:09.015Z,21.67
2022-08-19T08:25:38.757Z,21.35
2022-08-19T08:28:09.942Z,21.65
2022-08-19T08:30:45.241Z,20.70
2022-08-19T08:33:13.644Z,21.02
2022-08-19T08:35:44.023Z,20.98
2022-08-19T08:38:12.004Z,19.50
2022-08-19T08:40:51.004Z,18.60
2022-08-19T08:43:32.399Z,18.88
2022-08-19T08:46:07.604Z,17.45
2022-08-19T08:48:41.915Z,17.42
2022-08-19T08:51:13.708Z,17.95
2022-08-19T08:53:55.952Z,17.20
2022-08-19T08:56:25.028Z,16.92
2022-08-19T08:59:00.198Z,16.83
2022-08-19T09:01:30.918Z,16.25
2022-08-19T09:04:03.095Z,17.63
2022-08-19T09:06:40.778Z,17.25
2022-08-19T09:09:18.609Z,17.17
2022-08-19T09:11:58.008Z,16.63
2022-08-19T09:14:54.334Z,16.40
2022-08-19T09:17:28.431Z,14.20
2022-08-19T09:20:05.498Z,14.95
2022-08-19T09:22:33.669Z,15.45
2022-08-19T09:25:01.955Z,14.27
2022-08-19T09:27:43.097Z,14.35
2022-08-19T09:30:15.796Z,13.45
2022-08-19T09:32:46.429Z,13.55
2022-08-19T09:35:16.386Z,13.75
2022-08-19T09:37:44.989Z,13.10
2022-08-19T09:40:15.356Z,14.52
2022-08-19T09:42:50.010Z,12.65
2022-08-19T09:45:21.967Z,12.75
2022-08-19T09:47:54.105Z,12.85
2022-08-19T09:50:24.850Z,13.18
2022-08-19T09:52:56.480Z,11.70
2022-08-19T09:55:31.680Z,13.05
2022-08-19T09:58:02.213Z,14.02
2022-08-19T10:00:31.747Z,14.02
2022-08-19T10:03:01.157Z,14.70
2022-08-19T10:05:48.581Z,13.15
2022-08-19T10:08:17.746Z,12.68
2022-08-19T10:10:47.075Z,12.93
2022-08-19T10:13:18.170Z,13.95
2022-08-19T10:15:47.816Z,13.30
2022-08-19T10:18:19.809Z,14.40
2022-08-19T10:20:51.539Z,13.70
2022-08-19T10:23:20.749Z,14.00
2022-08-19T10:25:49.202Z,14.48
2022-08-19T10:28:19.222Z,14.38
2022-08-19T10:30:48.155Z,14.55
2022-08-19T10:33:19.259Z,14.00
2022-08-19T10:36:08.807Z,19.03
2022-08-19T10:38:37.002Z,16.35
2022-08-19T10:41:13.167Z,16.95
2022-08-19T10:43:41.211Z,17.75
2022-08-19T10:46:14.130Z,17.52
2022-08-19T10:48:45.193Z,18.02
2022-08-19T10:51:31.932Z,18.45
2022-08-19T10:54:00.912Z,19.08
2022-08-19T10:56:47.313Z,19.98
2022-08-19T10:59:16.627Z,19.48
2022-08-19T11:01:46.215Z,21.17
2022-08-19T11:04:14.770Z,22.10
2022-08-19T11:06:44.455Z,19.98
2022-08-19T11:09:12.894Z,20.50
2022-08-19T11:11:41.876Z,21.60
2022-08-19T11:14:10.348Z,18.90
2022-08-19T11:16:39.957Z,20.70
2022-08-19T11:19:09.918Z,21.85
2022-08-19T11:21:40.537Z,26.65
2022-08-19T11:24:13.063Z,20.77
2022-08-19T11:26:43.326Z,28.17
2022-08-19T11:29:13.779Z,21.90
2022-08-19T11:31:43.772Z,22.92
2022-08-19T11:34:14.173Z,21.40
2022-08-19T11:36:44.990Z,20.73
2022-08-19T11:39:16.106Z,20.77
2022-08-19T11:41:44.177Z,21.15
2022-08-19T11:44:12.081Z,20.80
2022-08-19T11:46:40.300Z,21.20
2022-08-19T11:49:13.839Z,20.88
2022-08-19T11:51:44.106Z,19.10
2022-08-19T11:54:13.705Z,20.00
2022-08-19T11:56:43.904Z,20.63
2022-08-19T11:59:14.750Z,21.45
2022-08-19T12:01:43.584Z,20.65
2022-08-19T12:04:12.338Z,20.13
2022-08-19T12:06:42.567Z,19.95
2022-08-19T12:09:11.638Z,19.48
2022-08-19T12:11:41.519Z,19.30
2022-08-19T12:14:15.032Z,19.10
2022-08-19T12:16:44.809Z,18.63
2022-08-19T12:19:21.731Z,19.63
2022-08-19T12:21:51.670Z,19.42
2022-08-19T12:24:23.861Z,18.50
2022-08-19T12:26:54.002Z,18.55
2022-08-19T12:29:29.503Z,17.90
2022-08-19T12:32:02.261Z,16.13
2022-08-19T12:34:33.292Z,14.35
2022-08-19T12:37:04.248Z,14.43
2022-08-19T12:39:32.691Z,15.65
2022-08-19T12:42:00.628Z,14.43
2022-08-19T12:44:33.644Z,14.15
2022-08-19T12:47:03.508Z,13.30
2022-08-19T12:49:53.458Z,12.20
2022-08-19T12:52:23.422Z,13.13
2022-08-19T12:54:53.928Z,13.40
2022-08-19T12:57:27.012Z,15.43
2022-08-19T13:00:07.468Z,13.10
2022-08-19T13:02:38.721Z,13.77
2022-08-19T13:05:10.196Z,10.18
2022-08-19T13:07:39.434Z,9.23
2022-08-19T13:10:09.478Z,9.30
2022-08-19T13:12:37.483Z,8.32
2022-08-19T13:15:10.684Z,7.95
2022-08-19T13:17:39.947Z,7.50
2022-08-19T13:20:09.639Z,8.38
2022-08-19T13:22:37.694Z,8.15
2022-08-19T13:25:06.437Z,9.18
2022-08-19T13:27:34.813Z,9.57
2022-08-19T13:30:20.957Z,9.15
2022-08-19T13:33:07.785Z,8.50
2022-08-19T13:35:35.924Z,8.52
2022-08-19T13:38:05.662Z,8.55
2022-08-19T13:40:35.466Z,8.82
2022-08-19T13:43:12.436Z,8.73
2022-08-19T13:45:50.842Z,8.95
2022-08-19T13:48:19.997Z,10.80
2022-08-19T13:50:49.084Z,8.32
2022-08-19T13:53:17.960Z,9.68
2022-08-19T13:55:46.125Z,10.50
2022-08-19T13:58:15.435Z,9.70
2022-08-19T14:00:46.628Z,8.18
2022-08-19T14:03:14.745Z,8.13
2022-08-19T14:05:44.025Z,7.80
2022-08-19T14:08:15.153Z,8.25
2022-08-19T14:10:45.204Z,8.23
2022-08-19T14:13:16.050Z,7.95
2022-08-19T14:15:43.843Z,7.93
2022-08-19T14:18:12.464Z,6.82
2022-08-19T14:20:40.650Z,6.50
2022-08-19T14:23:10.007Z,5.63
2022-08-19T14:25:38.717Z,5.70
2022-08-19T14:28:08.526Z,7.47
2022-08-19T14:30:38.909Z,5.07
2022-08-19T14:33:09.177Z,6.90
2022-08-19T14:35:38.003Z,5.22
2022-08-19T14:38:07.496Z,5.32
2022-08-19T14:40:36.729Z,5.40
2022-08-19T14:43:06.307Z,5.03
2022-08-19T14:45:36.691Z,4.65
2022-08-19T14:48:05.539Z,4.53
2022-08-19T14:50:33.535Z,4.18
2022-08-19T14:53:09.010Z,4.63
2022-08-19T14:55:44.759Z,3.80
2022-08-19T14:58:28.964Z,4.20
2022-08-19T15:00:59.888Z,3.58
2022-08-19T15:03:27.974Z,3.83
2022-08-19T15:05:56.452Z,3.65
2022-08-19T15:08:25.864Z,3.20
2022-08-19T15:10:55.578Z,4.00
2022-08-19T15:13:23.520Z,3.53
2022-08-19T15:15:52.548Z,4.07
2022-08-19T15:18:21.310Z,3.17
2022-08-19T15:20:50.103Z,3.40
2022-08-19T15:23:19.656Z,2.88
2022-08-19T15:25:47.991Z,3.25
2022-08-19T15:28:17.374Z,2.92
2022-08-19T15:30:45.406Z,3.10
2022-08-19T15:33:15.109Z,3.03
2022-08-19T15:35:43.302Z,2.95
2022-08-19T15:38:13.757Z,3.10
2022-08-19T15:40:42.895Z,3.85
2022-08-19T15:43:11.475Z,3.58
2022-08-19T15:45:44.338Z,3.28
2022-08-19T15:48:15.563Z,3.25
2022-08-19T15:50:43.390Z,3.85
2022-08-19T15:53:11.978Z,4.32
2022-08-19T15:55:44.807Z,3.55
2022-08-19T15:58:33.271Z,4.13
2022-08-19T16:01:23.812Z,5.50
2022-08-19T16:04:14.700Z,4.18
2022-08-19T16:06:47.146Z,4.38
2022-08-19T16:09:16.627Z,3.92
2022-08-19T16:11:46.112Z,5.03
2022-08-19T16:14:14.887Z,5.38
2022-08-19T16:16:47.195Z,5.47
2022-08-19T16:19:17.440Z,5.85
2022-08-19T16:21:49.227Z,5.95
2022-08-19T16:24:19.809Z,5.65
2022-08-19T16:26:49.355Z,6.22
2022-08-19T16:29:33.418Z,5.95
2022-08-19T16:32:06.194Z,6.30
2022-08-19T16:34:35.098Z,5.80
2022-08-19T16:37:03.441Z,6.80
2022-08-19T16:39:31.876Z,7.00
2022-08-19T16:42:00.967Z,8.50
2022-08-19T16:44:30.166Z,7.03
2022-08-19T16:46:59.851Z,7.68
2022-08-19T16:49:54.228Z,6.93
2022-08-19T16:52:19.022Z,7.35
2022-08-19T16:54:47.959Z,7.45
2022-08-19T16:57:16.033Z,7.07
2022-08-19T16:59:48.772Z,7.55
2022-08-19T17:02:18.101Z,7.72
2022-08-19T17:04:57.234Z,7.28
2022-08-19T17:07:26.737Z,5.25
2022-08-19T17:09:55.270Z,5.20
2022-08-19T17:12:30.207Z,5.88
2022-08-19T17:15:01.554Z,5.53
2022-08-19T17:17:30.160Z,5.70
2022-08-19T17:20:00.429Z,6.13
2022-08-19T17:22:28.950Z,5.75
2022-08-19T17:24:58.231Z,6.40
2022-08-19T17:27:31.390Z,6.30
2022-08-19T17:30:02.576Z,6.18
2022-08-19T17:32:34.340Z,6.53
2022-08-19T17:35:04.319Z,5.65
2022-08-19T17:37:32.581Z,6.15
2022-08-19T17:40:00.743Z,5.82
2022-08-19T17:42:28.651Z,6.30
2022-08-19T17:44:59.412Z,5.38
2022-08-19T17:47:28.346Z,6.95
2022-08-19T17:49:56.714Z,5.88
2022-08-19T17:52:26.231Z,5.78
2022-08-19T17:54:54.416Z,5.38
2022-08-19T17:57:22.632Z,5.63
2022-08-19T17:59:50.545Z,4.95
2022-08-19T18:02:22.018Z,5.35
2022-08-19T18:04:50.858Z,5.07
2022-08-19T18:07:21.604Z,5.40
2022-08-19T18:09:52.756Z,7.07
2022-08-19T18:12:24.794Z,6.20
2022-08-19T18:14:53.065Z,7.77
2022-08-19T18:17:23.258Z,6.10
2022-08-19T18:19:51.534Z,5.80
2022-08-19T18:22:26.559Z,5.95
2022-08-19T18:24:57.150Z,5.18
2022-08-19T18:27:25.451Z,5.60
2022-08-19T18:29:56.575Z,5.30
2022-08-19T18:32:25.800Z,4.97
2022-08-19T18:34:54.855Z,5.20
2022-08-19T18:37:22.850Z,5.22
2022-08-19T18:40:08.293Z,4.57
2022-08-19T18:42:59.631Z,5.50
2022-08-19T18:45:45.471Z,5.07
2022-08-19T18:48:31.615Z,4.93
2022-08-19T18:51:01.279Z,4.88
2022-08-19T18:53:32.364Z,5.18
2022-08-19T18:56:00.480Z,4.57
2022-08-19T18:58:32.219Z,4.75
2022-08-19T19:01:01.018Z,6.50
2022-08-19T19:03:28.931Z,5.00
2022-08-19T19:05:56.807Z,4.47
2022-08-19T19:08:26.742Z,4.05
2022-08-19T19:10:55.893Z,5.35
2022-08-19T19:13:24.693Z,4.28
2022-08-19T19:15:54.539Z,3.88
2022-08-19T19:18:22.611Z,3.97
2022-08-19T19:20:50.775Z,3.47
2022-08-19T19:23:19.478Z,3.00
2022-08-19T19:25:50.463Z,2.92
2022-08-19T19:28:25.591Z,3.20
2022-08-19T19:30:58.432Z,3.00
2022-08-19T19:33:26.651Z,2.63
2022-08-19T19:35:54.606Z,2.58
2022-08-19T19:38:22.364Z,2.63
2022-08-19T19:40:50.323Z,2.42
2022-08-19T19:43:18.160Z,2.10
2022-08-19T19:45:48.159Z,2.70
2022-08-19T19:48:17.312Z,2.22
2022-08-19T19:50:46.030Z,1.95
2022-08-19T19:53:22.075Z,1.95
2022-08-19T19:55:51.513Z,2.08
2022-08-19T19:58:21.247Z,2.25
2022-08-19T20:00:57.465Z,2.42
2022-08-19T20:03:27.250Z,2.53
2022-08-19T20:05:58.128Z,2.30
2022-08-19T20:08:43.894Z,2.33
2022-08-19T20:11:13.011Z,2.80
2022-08-19T20:13:41.250Z,2.40
2022-08-19T20:16:09.627Z,2.30
2022-08-19T20:18:40.119Z,2.92
2022-08-19T20:21:08.007Z,2.85
2022-08-19T20:23:36.306Z,3.00
2022-08-19T20:26:06.783Z,3.05
2022-08-19T20:28:45.713Z,2.63
2022-08-19T20:31:26.919Z,4.60
2022-08-19T20:33:59.452Z,3.65
2022-08-19T20:36:27.997Z,5.13
2022-08-19T20:38:56.330Z,4.88
2022-08-19T20:41:24.738Z,4.05
2022-08-19T20:43:52.869Z,3.75
2022-08-19T20:46:21.062Z,4.10
2022-08-19T20:48:50.186Z,4.43
2022-08-19T20:51:21.101Z,4.03
2022-08-19T20:53:49.502Z,4.25
2022-08-19T20:56:17.677Z,4.70
2022-08-19T20:58:53.539Z,4.93
2022-08-19T21:01:24.054Z,4.50
2022-08-19T21:03:52.368Z,4.95
2022-08-19T21:06:22.303Z,4.28
2022-08-19T21:08:51.285Z,4.90
2022-08-19T21:11:20.760Z,5.20
2022-08-19T21:13:49.287Z,4.65
2022-08-19T21:16:17.921Z,5.07
2022-08-19T21:18:46.268Z,4.90
2022-08-19T21:21:14.487Z,4.90
2022-08-19T21:23:44.304Z,5.07
2022-08-19T21:26:12.535Z,5.32
2022-08-19T21:28:41.487Z,4.80
2022-08-19T21:31:11.378Z,6.10
2022-08-19T21:33:40.942Z,5.72
2022-08-19T21:36:09.959Z,5.22
2022-08-19T21:38:37.961Z,5.28
2022-08-19T21:41:08.198Z,5.15
2022-08-19T21:43:37.125Z,5.88
2022-08-19T21:46:05.815Z,5.88
2022-08-19T21:48:33.758Z,5.85
2022-08-19T21:51:01.672Z,5.57
2022-08-19T21:53:31.439Z,5.90
2022-08-19T21:56:01.409Z,5.95
2022-08-19T21:58:30.898Z,6.53
2022-08-19T22:00:59.219Z,5.68
2022-08-19T22:03:28.595Z,5.72
2022-08-19T22:05:56.529Z,6.25
2022-08-19T22:08:24.642Z,5.72
2022-08-19T22:10:52.659Z,5.82
2022-08-19T22:13:21.385Z,5.22
2022-08-19T22:15:51.883Z,6.10
2022-08-19T22:18:20.038Z,6.57
2022-08-19T22:20:48.821Z,5.72
2022-08-19T22:23:16.784Z,5.35
2022-08-19T22:25:47.216Z,5.35
2022-08-19T22:28:18.742Z,6.15
2022-08-19T22:30:51.113Z,6.18
2022-08-19T22:33:22.591Z,6.10
2022-08-19T22:35:52.440Z,6.47
2022-08-19T22:38:20.345Z,5.93
2022-08-19T22:40:50.305Z,5.93
2022-08-19T22:43:20.854Z,6.10
2022-08-19T22:45:50.332Z,6.00
2022-08-19T22:48:22.081Z,6.65
2022-08-19T22:51:05.086Z,6.18
2022-08-19T22:53:33.503Z,6.05
2022-08-19T22:56:01.627Z,6.30
2022-08-19T22:58:29.740Z,6.85
2022-08-19T23:00:57.952Z,6.93
2022-08-19T23:03:27.476Z,6.72
2022-08-19T23:05:56.303Z,6.70
2022-08-19T23:08:25.177Z,7.05
2022-08-19T23:10:53.137Z,6.68
2022-08-19T23:13:21.092Z,5.75
2022-08-19T23:15:49.096Z,6.32
2022-08-19T23:18:17.030Z,6.07
2022-08-19T23:20:46.448Z,7.03
2022-08-19T23:23:18.619Z,6.53
2022-08-19T23:25:47.742Z,6.97
2022-08-19T23:28:33.385Z,6.13
2022-08-19T23:31:02.933Z,7.00
2022-08-19T23:33:50.851Z,7.32
2022-08-19T23:36:22.484Z,6.82
2022-08-19T23:38:51.975Z,6.28
2022-08-19T23:41:22.027Z,6.97
2022-08-19T23:43:50.847Z,7.53
2022-08-19T23:46:27.421Z,6.57
2022-08-19T23:48:56.837Z,6.85
2022-08-19T23:51:26.501Z,6.93
2022-08-19T23:53:54.462Z,7.88
2022-08-19T23:56:22.623Z,7.22
2022-08-19T23:58:50.490Z,7.00
